sensor_id;sensor_type;location;lat;lon;timestamp;P1;durP1;ratioP1;P2;durP2;ratioP2
51194;SDS011;37259;49.972;19.850;2023-04-03T00:00:07;4.8;;;2.1;;
51194;SDS011;37259;49.972;19.850;2023-04-03T00:01:07;4.8;;;2.1;;
51194;SDS011;37259;49.972;19.850;2023-04-03T00:02:07;4.8;;;2.1;;
51194;SDS011;37259;49.972;19.850;2023-04-03T00:03:07;4.8;;;2.1;;
51194;SDS011;37259;49.972;19.850;2023-04-03T00:04:07;4.8;;;2.1;;
51194;SDS011;37259;49.972;19.850;2023-04-03T00:05:07;4.8;;;2.1;;
51194;SDS011;37259;49.972;19.850;2023-04-03T00:06:07;4.8;;;2.1;;
51194;SDS011;37259;49.972;19.850;2023-04-03T00:07:07;4.8;;;2.1;;
51194;SDS011;37259;49.972;19.850;2023-04-03T00:08:07;4.8;;;2.1;;
51194;SDS011;37259;49.972;19.850;2023-04-03T00:09:07;4.8;;;2.1;;
51194;SDS011;37259;49.972;19.850;2023-04-03T00:10:07;4.8;;;2.1;;
51194;SDS011;37259;49.972;19.850;2023-04-03T00:11:07;4.8;;;2.1;;
51194;SDS011;37259;49.972;19.850;2023-04-03T00:12:07;4.8;;;2.1;;
51194;SDS011;37259;49.972;19.850;2023-04-03T00:13:07;4.8;;;2.1;;
51194;SDS011;37259;49.972;19.850;2023-04-03T00:14:07;4.8;;;2.1;;
51194;SDS011;37259;49.972;19.850;2023-04-03T00:15:07;4.8;;;2.1;;
51194;SDS011;37259;49.972;19.850;2023-04-03T00:16:07;4.8;;;2.1;;
51194;SDS011;37259;49.972;19.850;2023-04-03T00:17:07;4.8;;;2.1;;
51194;SDS011;37259;49.972;19.850;2023-04-03T00:18:07;4.5;;;2;;
51194;SDS011;37259;49.972;19.850;2023-04-03T00:19:06;4.5;;;2;;
51194;SDS011;37259;49.972;19.850;2023-04-03T00:20:07;4.5;;;2;;
51194;SDS011;37259;49.972;19.850;2023-04-03T00:21:07;4.5;;;2;;
51194;SDS011;37259;49.972;19.850;2023-04-03T00:22:06;4.5;;;2;;
51194;SDS011;37259;49.972;19.850;2023-04-03T00:23:07;4.5;;;2;;
51194;SDS011;37259;49.972;19.850;2023-04-03T00:24:06;4.5;;;2;;
51194;SDS011;37259;49.972;19.850;2023-04-03T00:25:07;4.5;;;2;;
51194;SDS011;37259;49.972;19.850;2023-04-03T00:26:07;4.5;;;2;;
51194;SDS011;37259;49.972;19.850;2023-04-03T00:27:07;4.5;;;2;;
51194;SDS011;37259;49.972;19.850;2023-04-03T00:28:07;4.5;;;2;;
51194;SDS011;37259;49.972;19.850;2023-04-03T00:29:07;4.5;;;2;;
51194;SDS011;37259;49.972;19.850;2023-04-03T00:30:07;4.5;;;2;;
51194;SDS011;37259;49.972;19.850;2023-04-03T00:31:07;4.5;;;2;;
51194;SDS011;37259;49.972;19.850;2023-04-03T00:32:07;4.5;;;2;;
51194;SDS011;37259;49.972;19.850;2023-04-03T00:33:07;4.5;;;2;;
51194;SDS011;37259;49.972;19.850;2023-04-03T00:34:07;4.5;;;2;;
51194;SDS011;37259;49.972;19.850;2023-04-03T00:35:07;4.5;;;2;;
51194;SDS011;37259;49.972;19.850;2023-04-03T00:36:07;4.5;;;2;;
51194;SDS011;37259;49.972;19.850;2023-04-03T00:37:07;4.5;;;2;;
51194;SDS011;37259;49.972;19.850;2023-04-03T00:38:07;4.5;;;2;;
51194;SDS011;37259;49.972;19.850;2023-04-03T00:39:07;4.5;;;2;;
51194;SDS011;37259;49.972;19.850;2023-04-03T00:40:07;4.5;;;2;;
51194;SDS011;37259;49.972;19.850;2023-04-03T00:41:07;4.5;;;2;;
51194;SDS011;37259;49.972;19.850;2023-04-03T00:42:07;4.5;;;2;;
51194;SDS011;37259;49.972;19.850;2023-04-03T00:43:10;4.5;;;2;;
51194;SDS011;37259;49.972;19.850;2023-04-03T00:44:23;4.5;;;2;;
51194;SDS011;37259;49.972;19.850;2023-04-03T00:45:39;4.5;;;2;;
51194;SDS011;37259;49.972;19.850;2023-04-03T00:46:07;4.5;;;2;;
51194;SDS011;37259;49.972;19.850;2023-04-03T00:47:08;4.5;;;2;;
51194;SDS011;37259;49.972;19.850;2023-04-03T00:48:08;4.3;;;2.3;;
51194;SDS011;37259;49.972;19.850;2023-04-03T00:49:07;4.3;;;2.3;;
51194;SDS011;37259;49.972;19.850;2023-04-03T00:50:07;4.3;;;2.3;;
51194;SDS011;37259;49.972;19.850;2023-04-03T00:51:07;4.3;;;2.3;;
51194;SDS011;37259;49.972;19.850;2023-04-03T00:52:07;4.3;;;2.3;;
51194;SDS011;37259;49.972;19.850;2023-04-03T00:53:07;4.3;;;2.3;;
51194;SDS011;37259;49.972;19.850;2023-04-03T00:54:07;4.3;;;2.3;;
51194;SDS011;37259;49.972;19.850;2023-04-03T00:55:07;4.3;;;2.3;;
51194;SDS011;37259;49.972;19.850;2023-04-03T00:56:07;4.3;;;2.3;;
51194;SDS011;37259;49.972;19.850;2023-04-03T00:57:07;4.3;;;2.3;;
51194;SDS011;37259;49.972;19.850;2023-04-03T00:58:07;4.3;;;2.3;;
51194;SDS011;37259;49.972;19.850;2023-04-03T00:59:08;4.3;;;2.3;;
51194;SDS011;37259;49.972;19.850;2023-04-03T01:00:07;4.3;;;2.3;;
51194;SDS011;37259;49.972;19.850;2023-04-03T01:01:08;4.3;;;2.3;;
51194;SDS011;37259;49.972;19.850;2023-04-03T01:02:07;4.3;;;2.3;;
51194;SDS011;37259;49.972;19.850;2023-04-03T01:03:07;4.3;;;2.3;;
51194;SDS011;37259;49.972;19.850;2023-04-03T01:04:24;4.3;;;2.3;;
51194;SDS011;37259;49.972;19.850;2023-04-03T01:05:07;4.3;;;2.3;;
51194;SDS011;37259;49.972;19.850;2023-04-03T01:06:07;4.3;;;2.3;;
51194;SDS011;37259;49.972;19.850;2023-04-03T01:07:08;4.3;;;2.3;;
51194;SDS011;37259;49.972;19.850;2023-04-03T01:08:07;4.3;;;2.3;;
51194;SDS011;37259;49.972;19.850;2023-04-03T01:09:07;4.3;;;2.3;;
51194;SDS011;37259;49.972;19.850;2023-04-03T01:10:08;4.3;;;2.3;;
51194;SDS011;37259;49.972;19.850;2023-04-03T01:11:07;4.3;;;2.3;;
51194;SDS011;37259;49.972;19.850;2023-04-03T01:12:14;4.3;;;2.3;;
51194;SDS011;37259;49.972;19.850;2023-04-03T01:13:17;4.3;;;2.3;;
51194;SDS011;37259;49.972;19.850;2023-04-03T01:14:07;4.3;;;2.3;;
51194;SDS011;37259;49.972;19.850;2023-04-03T01:15:08;4.3;;;2.3;;
51194;SDS011;37259;49.972;19.850;2023-04-03T01:16:07;4.3;;;2.3;;
51194;SDS011;37259;49.972;19.850;2023-04-03T01:17:21;4.3;;;2.3;;
51194;SDS011;37259;49.972;19.850;2023-04-03T01:18:08;3.1;;;1.9;;
51194;SDS011;37259;49.972;19.850;2023-04-03T01:19:07;3.1;;;1.9;;
51194;SDS011;37259;49.972;19.850;2023-04-03T01:20:16;3.1;;;1.9;;
51194;SDS011;37259;49.972;19.850;2023-04-03T01:21:11;3.1;;;1.9;;
51194;SDS011;37259;49.972;19.850;2023-04-03T01:22:10;3.1;;;1.9;;
51194;SDS011;37259;49.972;19.850;2023-04-03T01:23:11;3.1;;;1.9;;
51194;SDS011;37259;49.972;19.850;2023-04-03T01:24:10;3.1;;;1.9;;
51194;SDS011;37259;49.972;19.850;2023-04-03T01:25:07;3.1;;;1.9;;
51194;SDS011;37259;49.972;19.850;2023-04-03T01:26:07;3.1;;;1.9;;
51194;SDS011;37259;49.972;19.850;2023-04-03T01:27:07;3.1;;;1.9;;
51194;SDS011;37259;49.972;19.850;2023-04-03T01:28:08;3.1;;;1.9;;
51194;SDS011;37259;49.972;19.850;2023-04-03T01:29:07;3.1;;;1.9;;
51194;SDS011;37259;49.972;19.850;2023-04-03T01:30:07;3.1;;;1.9;;
51194;SDS011;37259;49.972;19.850;2023-04-03T01:31:11;3.1;;;1.9;;
51194;SDS011;37259;49.972;19.850;2023-04-03T01:32:07;3.1;;;1.9;;
51194;SDS011;37259;49.972;19.850;2023-04-03T01:33:07;3.1;;;1.9;;
51194;SDS011;37259;49.972;19.850;2023-04-03T01:34:07;3.1;;;1.9;;
51194;SDS011;37259;49.972;19.850;2023-04-03T01:35:07;3.1;;;1.9;;
51194;SDS011;37259;49.972;19.850;2023-04-03T01:36:07;3.1;;;1.9;;
51194;SDS011;37259;49.972;19.850;2023-04-03T01:37:07;3.1;;;1.9;;
51194;SDS011;37259;49.972;19.850;2023-04-03T01:38:07;3.1;;;1.9;;
51194;SDS011;37259;49.972;19.850;2023-04-03T01:39:07;3.1;;;1.9;;
51194;SDS011;37259;49.972;19.850;2023-04-03T01:40:07;3.1;;;1.9;;
51194;SDS011;37259;49.972;19.850;2023-04-03T01:41:07;3.1;;;1.9;;
51194;SDS011;37259;49.972;19.850;2023-04-03T01:42:07;3.1;;;1.9;;
51194;SDS011;37259;49.972;19.850;2023-04-03T01:43:07;3.1;;;1.9;;
51194;SDS011;37259;49.972;19.850;2023-04-03T01:44:07;3.1;;;1.9;;
51194;SDS011;37259;49.972;19.850;2023-04-03T01:45:07;3.1;;;1.9;;
51194;SDS011;37259;49.972;19.850;2023-04-03T01:46:07;3.1;;;1.9;;
51194;SDS011;37259;49.972;19.850;2023-04-03T01:47:07;3.1;;;1.9;;
51194;SDS011;37259;49.972;19.850;2023-04-03T01:48:07;2.5;;;1.5;;
51194;SDS011;37259;49.972;19.850;2023-04-03T01:49:07;2.5;;;1.5;;
51194;SDS011;37259;49.972;19.850;2023-04-03T01:50:07;2.5;;;1.5;;
51194;SDS011;37259;49.972;19.850;2023-04-03T01:51:07;2.5;;;1.5;;
51194;SDS011;37259;49.972;19.850;2023-04-03T01:52:07;2.5;;;1.5;;
51194;SDS011;37259;49.972;19.850;2023-04-03T01:53:07;2.5;;;1.5;;
51194;SDS011;37259;49.972;19.850;2023-04-03T01:54:07;2.5;;;1.5;;
51194;SDS011;37259;49.972;19.850;2023-04-03T01:55:07;2.5;;;1.5;;
51194;SDS011;37259;49.972;19.850;2023-04-03T01:56:07;2.5;;;1.5;;
51194;SDS011;37259;49.972;19.850;2023-04-03T01:57:07;2.5;;;1.5;;
51194;SDS011;37259;49.972;19.850;2023-04-03T01:58:07;2.5;;;1.5;;
51194;SDS011;37259;49.972;19.850;2023-04-03T01:59:07;2.5;;;1.5;;
51194;SDS011;37259;49.972;19.850;2023-04-03T02:00:07;2.5;;;1.5;;
51194;SDS011;37259;49.972;19.850;2023-04-03T02:01:07;2.5;;;1.5;;
51194;SDS011;37259;49.972;19.850;2023-04-03T02:02:07;2.5;;;1.5;;
51194;SDS011;37259;49.972;19.850;2023-04-03T02:03:07;2.5;;;1.5;;
51194;SDS011;37259;49.972;19.850;2023-04-03T02:04:07;2.5;;;1.5;;
51194;SDS011;37259;49.972;19.850;2023-04-03T02:05:07;2.5;;;1.5;;
51194;SDS011;37259;49.972;19.850;2023-04-03T02:06:07;2.5;;;1.5;;
51194;SDS011;37259;49.972;19.850;2023-04-03T02:07:07;2.5;;;1.5;;
51194;SDS011;37259;49.972;19.850;2023-04-03T02:08:07;2.5;;;1.5;;
51194;SDS011;37259;49.972;19.850;2023-04-03T02:09:07;2.5;;;1.5;;
51194;SDS011;37259;49.972;19.850;2023-04-03T02:10:07;2.5;;;1.5;;
51194;SDS011;37259;49.972;19.850;2023-04-03T02:11:07;2.5;;;1.5;;
51194;SDS011;37259;49.972;19.850;2023-04-03T02:12:07;2.5;;;1.5;;
51194;SDS011;37259;49.972;19.850;2023-04-03T02:13:07;2.5;;;1.5;;
51194;SDS011;37259;49.972;19.850;2023-04-03T02:14:07;2.5;;;1.5;;
51194;SDS011;37259;49.972;19.850;2023-04-03T02:15:07;2.5;;;1.5;;
51194;SDS011;37259;49.972;19.850;2023-04-03T02:16:07;2.5;;;1.5;;
51194;SDS011;37259;49.972;19.850;2023-04-03T02:17:07;2.5;;;1.5;;
51194;SDS011;37259;49.972;19.850;2023-04-03T02:18:07;4.4;;;2.2;;
51194;SDS011;37259;49.972;19.850;2023-04-03T02:19:07;4.4;;;2.2;;
51194;SDS011;37259;49.972;19.850;2023-04-03T02:20:07;4.4;;;2.2;;
51194;SDS011;37259;49.972;19.850;2023-04-03T02:21:07;4.4;;;2.2;;
51194;SDS011;37259;49.972;19.850;2023-04-03T02:22:07;4.4;;;2.2;;
51194;SDS011;37259;49.972;19.850;2023-04-03T02:23:07;4.4;;;2.2;;
51194;SDS011;37259;49.972;19.850;2023-04-03T02:24:07;4.4;;;2.2;;
51194;SDS011;37259;49.972;19.850;2023-04-03T02:25:07;4.4;;;2.2;;
51194;SDS011;37259;49.972;19.850;2023-04-03T02:26:07;4.4;;;2.2;;
51194;SDS011;37259;49.972;19.850;2023-04-03T02:27:07;4.4;;;2.2;;
51194;SDS011;37259;49.972;19.850;2023-04-03T02:28:07;4.4;;;2.2;;
51194;SDS011;37259;49.972;19.850;2023-04-03T02:29:07;4.4;;;2.2;;
51194;SDS011;37259;49.972;19.850;2023-04-03T02:30:07;4.4;;;2.2;;
51194;SDS011;37259;49.972;19.850;2023-04-03T02:31:07;4.4;;;2.2;;
51194;SDS011;37259;49.972;19.850;2023-04-03T02:32:07;4.4;;;2.2;;
51194;SDS011;37259;49.972;19.850;2023-04-03T02:33:07;4.4;;;2.2;;
51194;SDS011;37259;49.972;19.850;2023-04-03T02:34:07;4.4;;;2.2;;
51194;SDS011;37259;49.972;19.850;2023-04-03T02:35:07;4.4;;;2.2;;
51194;SDS011;37259;49.972;19.850;2023-04-03T02:36:07;4.4;;;2.2;;
51194;SDS011;37259;49.972;19.850;2023-04-03T02:37:07;4.4;;;2.2;;
51194;SDS011;37259;49.972;19.850;2023-04-03T02:38:07;4.4;;;2.2;;
51194;SDS011;37259;49.972;19.850;2023-04-03T02:39:07;4.4;;;2.2;;
51194;SDS011;37259;49.972;19.850;2023-04-03T02:40:07;4.4;;;2.2;;
51194;SDS011;37259;49.972;19.850;2023-04-03T02:41:08;4.4;;;2.2;;
51194;SDS011;37259;49.972;19.850;2023-04-03T02:42:07;4.4;;;2.2;;
51194;SDS011;37259;49.972;19.850;2023-04-03T02:43:07;4.4;;;2.2;;
51194;SDS011;37259;49.972;19.850;2023-04-03T02:44:11;4.4;;;2.2;;
51194;SDS011;37259;49.972;19.850;2023-04-03T02:45:07;4.4;;;2.2;;
51194;SDS011;37259;49.972;19.850;2023-04-03T02:46:07;4.4;;;2.2;;
51194;SDS011;37259;49.972;19.850;2023-04-03T02:47:07;4.4;;;2.2;;
51194;SDS011;37259;49.972;19.850;2023-04-03T02:48:07;3;;;1.8;;
51194;SDS011;37259;49.972;19.850;2023-04-03T02:49:07;3;;;1.8;;
51194;SDS011;37259;49.972;19.850;2023-04-03T02:50:07;3;;;1.8;;
51194;SDS011;37259;49.972;19.850;2023-04-03T02:51:07;3;;;1.8;;
51194;SDS011;37259;49.972;19.850;2023-04-03T02:52:07;3;;;1.8;;
51194;SDS011;37259;49.972;19.850;2023-04-03T02:53:07;3;;;1.8;;
51194;SDS011;37259;49.972;19.850;2023-04-03T02:54:07;3;;;1.8;;
51194;SDS011;37259;49.972;19.850;2023-04-03T02:55:07;3;;;1.8;;
51194;SDS011;37259;49.972;19.850;2023-04-03T02:56:07;3;;;1.8;;
51194;SDS011;37259;49.972;19.850;2023-04-03T02:57:07;3;;;1.8;;
51194;SDS011;37259;49.972;19.850;2023-04-03T02:58:07;3;;;1.8;;
51194;SDS011;37259;49.972;19.850;2023-04-03T02:59:07;3;;;1.8;;
51194;SDS011;37259;49.972;19.850;2023-04-03T03:00:07;3;;;1.8;;
51194;SDS011;37259;49.972;19.850;2023-04-03T03:01:07;3;;;1.8;;
51194;SDS011;37259;49.972;19.850;2023-04-03T03:02:07;3;;;1.8;;
51194;SDS011;37259;49.972;19.850;2023-04-03T03:03:07;3;;;1.8;;
51194;SDS011;37259;49.972;19.850;2023-04-03T03:04:07;3;;;1.8;;
51194;SDS011;37259;49.972;19.850;2023-04-03T03:05:07;3;;;1.8;;
51194;SDS011;37259;49.972;19.850;2023-04-03T03:06:07;3;;;1.8;;
51194;SDS011;37259;49.972;19.850;2023-04-03T03:07:07;3;;;1.8;;
51194;SDS011;37259;49.972;19.850;2023-04-03T03:08:07;3;;;1.8;;
51194;SDS011;37259;49.972;19.850;2023-04-03T03:09:07;3;;;1.8;;
51194;SDS011;37259;49.972;19.850;2023-04-03T03:10:07;3;;;1.8;;
51194;SDS011;37259;49.972;19.850;2023-04-03T03:11:07;3;;;1.8;;
51194;SDS011;37259;49.972;19.850;2023-04-03T03:12:07;3;;;1.8;;
51194;SDS011;37259;49.972;19.850;2023-04-03T03:13:07;3;;;1.8;;
51194;SDS011;37259;49.972;19.850;2023-04-03T03:14:07;3;;;1.8;;
51194;SDS011;37259;49.972;19.850;2023-04-03T03:15:07;3;;;1.8;;
51194;SDS011;37259;49.972;19.850;2023-04-03T03:16:07;3;;;1.8;;
51194;SDS011;37259;49.972;19.850;2023-04-03T03:17:07;3;;;1.8;;
51194;SDS011;37259;49.972;19.850;2023-04-03T03:18:07;3.4;;;2;;
51194;SDS011;37259;49.972;19.850;2023-04-03T03:19:07;3.4;;;2;;
51194;SDS011;37259;49.972;19.850;2023-04-03T03:20:07;3.4;;;2;;
51194;SDS011;37259;49.972;19.850;2023-04-03T03:21:08;3.4;;;2;;
51194;SDS011;37259;49.972;19.850;2023-04-03T03:22:07;3.4;;;2;;
51194;SDS011;37259;49.972;19.850;2023-04-03T03:23:07;3.4;;;2;;
51194;SDS011;37259;49.972;19.850;2023-04-03T03:24:07;3.4;;;2;;
51194;SDS011;37259;49.972;19.850;2023-04-03T03:25:07;3.4;;;2;;
51194;SDS011;37259;49.972;19.850;2023-04-03T03:26:07;3.4;;;2;;
51194;SDS011;37259;49.972;19.850;2023-04-03T03:27:07;3.4;;;2;;
51194;SDS011;37259;49.972;19.850;2023-04-03T03:28:07;3.4;;;2;;
51194;SDS011;37259;49.972;19.850;2023-04-03T03:29:07;3.4;;;2;;
51194;SDS011;37259;49.972;19.850;2023-04-03T03:30:07;3.4;;;2;;
51194;SDS011;37259;49.972;19.850;2023-04-03T03:31:09;3.4;;;2;;
51194;SDS011;37259;49.972;19.850;2023-04-03T03:32:07;3.4;;;2;;
51194;SDS011;37259;49.972;19.850;2023-04-03T03:33:07;3.4;;;2;;
51194;SDS011;37259;49.972;19.850;2023-04-03T03:34:07;3.4;;;2;;
51194;SDS011;37259;49.972;19.850;2023-04-03T03:35:07;3.4;;;2;;
51194;SDS011;37259;49.972;19.850;2023-04-03T03:36:07;3.4;;;2;;
51194;SDS011;37259;49.972;19.850;2023-04-03T03:37:07;3.4;;;2;;
51194;SDS011;37259;49.972;19.850;2023-04-03T03:38:07;3.4;;;2;;
51194;SDS011;37259;49.972;19.850;2023-04-03T03:39:07;3.4;;;2;;
51194;SDS011;37259;49.972;19.850;2023-04-03T03:40:07;3.4;;;2;;
51194;SDS011;37259;49.972;19.850;2023-04-03T03:41:07;3.4;;;2;;
51194;SDS011;37259;49.972;19.850;2023-04-03T03:42:07;3.4;;;2;;
51194;SDS011;37259;49.972;19.850;2023-04-03T03:43:07;3.4;;;2;;
51194;SDS011;37259;49.972;19.850;2023-04-03T03:44:07;3.4;;;2;;
51194;SDS011;37259;49.972;19.850;2023-04-03T03:45:07;3.4;;;2;;
51194;SDS011;37259;49.972;19.850;2023-04-03T03:46:07;3.4;;;2;;
51194;SDS011;37259;49.972;19.850;2023-04-03T03:47:07;3.4;;;2;;
51194;SDS011;37259;49.972;19.850;2023-04-03T03:48:07;2.7;;;1.2;;
51194;SDS011;37259;49.972;19.850;2023-04-03T03:49:07;2.7;;;1.2;;
51194;SDS011;37259;49.972;19.850;2023-04-03T03:50:07;2.7;;;1.2;;
51194;SDS011;37259;49.972;19.850;2023-04-03T03:51:07;2.7;;;1.2;;
51194;SDS011;37259;49.972;19.850;2023-04-03T03:52:07;2.7;;;1.2;;
51194;SDS011;37259;49.972;19.850;2023-04-03T03:53:07;2.7;;;1.2;;
51194;SDS011;37259;49.972;19.850;2023-04-03T03:54:07;2.7;;;1.2;;
51194;SDS011;37259;49.972;19.850;2023-04-03T03:55:07;2.7;;;1.2;;
51194;SDS011;37259;49.972;19.850;2023-04-03T03:56:07;2.7;;;1.2;;
51194;SDS011;37259;49.972;19.850;2023-04-03T03:57:07;2.7;;;1.2;;
51194;SDS011;37259;49.972;19.850;2023-04-03T03:58:07;2.7;;;1.2;;
51194;SDS011;37259;49.972;19.850;2023-04-03T03:59:07;2.7;;;1.2;;
51194;SDS011;37259;49.972;19.850;2023-04-03T04:00:07;2.7;;;1.2;;
51194;SDS011;37259;49.972;19.850;2023-04-03T04:01:07;2.7;;;1.2;;
51194;SDS011;37259;49.972;19.850;2023-04-03T04:02:07;2.7;;;1.2;;
51194;SDS011;37259;49.972;19.850;2023-04-03T04:03:07;2.7;;;1.2;;
51194;SDS011;37259;49.972;19.850;2023-04-03T04:04:07;2.7;;;1.2;;
51194;SDS011;37259;49.972;19.850;2023-04-03T04:05:07;2.7;;;1.2;;
51194;SDS011;37259;49.972;19.850;2023-04-03T04:06:07;2.7;;;1.2;;
51194;SDS011;37259;49.972;19.850;2023-04-03T04:07:07;2.7;;;1.2;;
51194;SDS011;37259;49.972;19.850;2023-04-03T04:08:07;2.7;;;1.2;;
51194;SDS011;37259;49.972;19.850;2023-04-03T04:09:08;2.7;;;1.2;;
51194;SDS011;37259;49.972;19.850;2023-04-03T04:10:07;2.7;;;1.2;;
51194;SDS011;37259;49.972;19.850;2023-04-03T04:11:07;2.7;;;1.2;;
51194;SDS011;37259;49.972;19.850;2023-04-03T04:12:07;2.7;;;1.2;;
51194;SDS011;37259;49.972;19.850;2023-04-03T04:13:07;2.7;;;1.2;;
51194;SDS011;37259;49.972;19.850;2023-04-03T04:14:07;2.7;;;1.2;;
51194;SDS011;37259;49.972;19.850;2023-04-03T04:15:07;2.7;;;1.2;;
51194;SDS011;37259;49.972;19.850;2023-04-03T04:16:07;2.7;;;1.2;;
51194;SDS011;37259;49.972;19.850;2023-04-03T04:17:07;2.7;;;1.2;;
51194;SDS011;37259;49.972;19.850;2023-04-03T04:18:07;3.9;;;1.4;;
51194;SDS011;37259;49.972;19.850;2023-04-03T04:19:07;3.9;;;1.4;;
51194;SDS011;37259;49.972;19.850;2023-04-03T04:20:07;3.9;;;1.4;;
51194;SDS011;37259;49.972;19.850;2023-04-03T04:21:07;3.9;;;1.4;;
51194;SDS011;37259;49.972;19.850;2023-04-03T04:22:07;3.9;;;1.4;;
51194;SDS011;37259;49.972;19.850;2023-04-03T04:23:07;3.9;;;1.4;;
51194;SDS011;37259;49.972;19.850;2023-04-03T04:24:07;3.9;;;1.4;;
51194;SDS011;37259;49.972;19.850;2023-04-03T04:25:07;3.9;;;1.4;;
51194;SDS011;37259;49.972;19.850;2023-04-03T04:26:07;3.9;;;1.4;;
51194;SDS011;37259;49.972;19.850;2023-04-03T04:27:07;3.9;;;1.4;;
51194;SDS011;37259;49.972;19.850;2023-04-03T04:28:07;3.9;;;1.4;;
51194;SDS011;37259;49.972;19.850;2023-04-03T04:29:08;3.9;;;1.4;;
51194;SDS011;37259;49.972;19.850;2023-04-03T04:30:07;3.9;;;1.4;;
51194;SDS011;37259;49.972;19.850;2023-04-03T04:31:07;3.9;;;1.4;;
51194;SDS011;37259;49.972;19.850;2023-04-03T04:32:07;3.9;;;1.4;;
51194;SDS011;37259;49.972;19.850;2023-04-03T04:33:07;3.9;;;1.4;;
51194;SDS011;37259;49.972;19.850;2023-04-03T04:34:07;3.9;;;1.4;;
51194;SDS011;37259;49.972;19.850;2023-04-03T04:35:07;3.9;;;1.4;;
51194;SDS011;37259;49.972;19.850;2023-04-03T04:36:07;3.9;;;1.4;;
51194;SDS011;37259;49.972;19.850;2023-04-03T04:37:07;3.9;;;1.4;;
51194;SDS011;37259;49.972;19.850;2023-04-03T04:38:07;3.9;;;1.4;;
51194;SDS011;37259;49.972;19.850;2023-04-03T04:39:07;3.9;;;1.4;;
51194;SDS011;37259;49.972;19.850;2023-04-03T04:40:07;3.9;;;1.4;;
51194;SDS011;37259;49.972;19.850;2023-04-03T04:41:07;3.9;;;1.4;;
51194;SDS011;37259;49.972;19.850;2023-04-03T04:42:07;3.9;;;1.4;;
51194;SDS011;37259;49.972;19.850;2023-04-03T04:43:07;3.9;;;1.4;;
51194;SDS011;37259;49.972;19.850;2023-04-03T04:44:07;3.9;;;1.4;;
51194;SDS011;37259;49.972;19.850;2023-04-03T04:45:07;3.9;;;1.4;;
51194;SDS011;37259;49.972;19.850;2023-04-03T04:46:07;3.9;;;1.4;;
51194;SDS011;37259;49.972;19.850;2023-04-03T04:47:07;3.9;;;1.4;;
51194;SDS011;37259;49.972;19.850;2023-04-03T04:48:07;4.2;;;2.2;;
51194;SDS011;37259;49.972;19.850;2023-04-03T04:49:07;4.2;;;2.2;;
51194;SDS011;37259;49.972;19.850;2023-04-03T04:50:07;4.2;;;2.2;;
51194;SDS011;37259;49.972;19.850;2023-04-03T04:51:07;4.2;;;2.2;;
51194;SDS011;37259;49.972;19.850;2023-04-03T04:52:07;4.2;;;2.2;;
51194;SDS011;37259;49.972;19.850;2023-04-03T04:53:07;4.2;;;2.2;;
51194;SDS011;37259;49.972;19.850;2023-04-03T04:54:07;4.2;;;2.2;;
51194;SDS011;37259;49.972;19.850;2023-04-03T04:55:07;4.2;;;2.2;;
51194;SDS011;37259;49.972;19.850;2023-04-03T04:56:07;4.2;;;2.2;;
51194;SDS011;37259;49.972;19.850;2023-04-03T04:57:07;4.2;;;2.2;;
51194;SDS011;37259;49.972;19.850;2023-04-03T04:58:07;4.2;;;2.2;;
51194;SDS011;37259;49.972;19.850;2023-04-03T04:59:07;4.2;;;2.2;;
51194;SDS011;37259;49.972;19.850;2023-04-03T05:00:07;4.2;;;2.2;;
51194;SDS011;37259;49.972;19.850;2023-04-03T05:01:07;4.2;;;2.2;;
51194;SDS011;37259;49.972;19.850;2023-04-03T05:02:07;4.2;;;2.2;;
51194;SDS011;37259;49.972;19.850;2023-04-03T05:03:07;4.2;;;2.2;;
51194;SDS011;37259;49.972;19.850;2023-04-03T05:04:07;4.2;;;2.2;;
51194;SDS011;37259;49.972;19.850;2023-04-03T05:05:07;4.2;;;2.2;;
51194;SDS011;37259;49.972;19.850;2023-04-03T05:06:07;4.2;;;2.2;;
51194;SDS011;37259;49.972;19.850;2023-04-03T05:07:07;4.2;;;2.2;;
51194;SDS011;37259;49.972;19.850;2023-04-03T05:08:07;4.2;;;2.2;;
51194;SDS011;37259;49.972;19.850;2023-04-03T05:09:07;4.2;;;2.2;;
51194;SDS011;37259;49.972;19.850;2023-04-03T05:10:07;4.2;;;2.2;;
51194;SDS011;37259;49.972;19.850;2023-04-03T05:11:07;4.2;;;2.2;;
51194;SDS011;37259;49.972;19.850;2023-04-03T05:12:07;4.2;;;2.2;;
51194;SDS011;37259;49.972;19.850;2023-04-03T05:13:07;4.2;;;2.2;;
51194;SDS011;37259;49.972;19.850;2023-04-03T05:14:07;4.2;;;2.2;;
51194;SDS011;37259;49.972;19.850;2023-04-03T05:15:07;4.2;;;2.2;;
51194;SDS011;37259;49.972;19.850;2023-04-03T05:16:07;4.2;;;2.2;;
51194;SDS011;37259;49.972;19.850;2023-04-03T05:17:07;4.2;;;2.2;;
51194;SDS011;37259;49.972;19.850;2023-04-03T05:18:07;3.9;;;2;;
51194;SDS011;37259;49.972;19.850;2023-04-03T05:19:07;3.9;;;2;;
51194;SDS011;37259;49.972;19.850;2023-04-03T05:20:07;3.9;;;2;;
51194;SDS011;37259;49.972;19.850;2023-04-03T05:21:07;3.9;;;2;;
51194;SDS011;37259;49.972;19.850;2023-04-03T05:22:07;3.9;;;2;;
51194;SDS011;37259;49.972;19.850;2023-04-03T05:23:07;3.9;;;2;;
51194;SDS011;37259;49.972;19.850;2023-04-03T05:24:07;3.9;;;2;;
51194;SDS011;37259;49.972;19.850;2023-04-03T05:25:07;3.9;;;2;;
51194;SDS011;37259;49.972;19.850;2023-04-03T05:26:07;3.9;;;2;;
51194;SDS011;37259;49.972;19.850;2023-04-03T05:27:07;3.9;;;2;;
51194;SDS011;37259;49.972;19.850;2023-04-03T05:28:07;3.9;;;2;;
51194;SDS011;37259;49.972;19.850;2023-04-03T05:29:07;3.9;;;2;;
51194;SDS011;37259;49.972;19.850;2023-04-03T05:30:07;3.9;;;2;;
51194;SDS011;37259;49.972;19.850;2023-04-03T05:31:07;3.9;;;2;;
51194;SDS011;37259;49.972;19.850;2023-04-03T05:32:07;3.9;;;2;;
51194;SDS011;37259;49.972;19.850;2023-04-03T05:33:07;3.9;;;2;;
51194;SDS011;37259;49.972;19.850;2023-04-03T05:34:07;3.9;;;2;;
51194;SDS011;37259;49.972;19.850;2023-04-03T05:35:07;3.9;;;2;;
51194;SDS011;37259;49.972;19.850;2023-04-03T05:36:07;3.9;;;2;;
51194;SDS011;37259;49.972;19.850;2023-04-03T05:37:07;3.9;;;2;;
51194;SDS011;37259;49.972;19.850;2023-04-03T05:38:07;3.9;;;2;;
51194;SDS011;37259;49.972;19.850;2023-04-03T05:39:07;3.9;;;2;;
51194;SDS011;37259;49.972;19.850;2023-04-03T05:40:07;3.9;;;2;;
51194;SDS011;37259;49.972;19.850;2023-04-03T05:41:07;3.9;;;2;;
51194;SDS011;37259;49.972;19.850;2023-04-03T05:42:07;3.9;;;2;;
51194;SDS011;37259;49.972;19.850;2023-04-03T05:43:07;3.9;;;2;;
51194;SDS011;37259;49.972;19.850;2023-04-03T05:44:07;3.9;;;2;;
51194;SDS011;37259;49.972;19.850;2023-04-03T05:45:07;3.9;;;2;;
51194;SDS011;37259;49.972;19.850;2023-04-03T05:46:09;3.9;;;2;;
51194;SDS011;37259;49.972;19.850;2023-04-03T05:47:07;4;;;2.2;;
51194;SDS011;37259;49.972;19.850;2023-04-03T05:48:07;4;;;2.2;;
51194;SDS011;37259;49.972;19.850;2023-04-03T05:49:07;4;;;2.2;;
51194;SDS011;37259;49.972;19.850;2023-04-03T05:50:07;4;;;2.2;;
51194;SDS011;37259;49.972;19.850;2023-04-03T05:51:09;4;;;2.2;;
51194;SDS011;37259;49.972;19.850;2023-04-03T05:52:09;4;;;2.2;;
51194;SDS011;37259;49.972;19.850;2023-04-03T05:53:07;4;;;2.2;;
51194;SDS011;37259;49.972;19.850;2023-04-03T05:54:09;4;;;2.2;;
51194;SDS011;37259;49.972;19.850;2023-04-03T05:55:07;4;;;2.2;;
51194;SDS011;37259;49.972;19.850;2023-04-03T05:56:07;4;;;2.2;;
51194;SDS011;37259;49.972;19.850;2023-04-03T05:57:07;4;;;2.2;;
51194;SDS011;37259;49.972;19.850;2023-04-03T05:58:07;4;;;2.2;;
51194;SDS011;37259;49.972;19.850;2023-04-03T05:59:07;4;;;2.2;;
51194;SDS011;37259;49.972;19.850;2023-04-03T06:00:07;4;;;2.2;;
51194;SDS011;37259;49.972;19.850;2023-04-03T06:01:07;4;;;2.2;;
51194;SDS011;37259;49.972;19.850;2023-04-03T06:02:07;4;;;2.2;;
51194;SDS011;37259;49.972;19.850;2023-04-03T06:03:07;4;;;2.2;;
51194;SDS011;37259;49.972;19.850;2023-04-03T06:04:07;4;;;2.2;;
51194;SDS011;37259;49.972;19.850;2023-04-03T06:05:07;4;;;2.2;;
51194;SDS011;37259;49.972;19.850;2023-04-03T06:06:07;4;;;2.2;;
51194;SDS011;37259;49.972;19.850;2023-04-03T06:07:08;4;;;2.2;;
51194;SDS011;37259;49.972;19.850;2023-04-03T06:08:07;4;;;2.2;;
51194;SDS011;37259;49.972;19.850;2023-04-03T06:09:07;4;;;2.2;;
51194;SDS011;37259;49.972;19.850;2023-04-03T06:10:07;4;;;2.2;;
51194;SDS011;37259;49.972;19.850;2023-04-03T06:11:07;4;;;2.2;;